Time;durP1;ratioP1;P1;durP2;ratioP2;P2;SDS_P1;SDS_P2;PMS_P1;PMS_P2;Temp;Humidity;BMP_temperature;BMP_pressure;BME280_temperature;BME280_humidity;BME280_pressure;Samples;Min_cycle;Max_cycle;Signal;HPM_P1;HPM_P2
2023/07/30 00:01:25;;;;;;;4.78;1.95;;;19.20;99.90;;;;;;7615756;19;20014;-84
2023/07/30 00:03:58;;;;;;;2.78;2.00;;;19.20;99.90;;;;;;7615823;19;20499;-83
2023/07/30 00:06:31;;;;;;;2.13;1.58;;;19.10;99.90;;;;;;7627548;19;20007;-84
2023/07/30 00:09:03;;;;;;;3.08;2.05;;;19.10;99.90;;;;;;7605373;19;20394;-84
2023/07/30 00:11:37;;;;;;;2.22;1.70;;;19.10;99.90;;;;;;7607986;19;20021;-83
2023/07/30 00:14:10;;;;;;;4.03;2.17;;;19.10;99.90;;;;;;7604003;19;20018;-83
2023/07/30 00:16:43;;;;;;;3.47;2.28;;;19.00;99.90;;;;;;7592987;19;20017;-83
2023/07/30 00:19:15;;;;;;;2.40;1.80;;;18.90;99.90;;;;;;7591097;19;20435;-84
2023/07/30 00:21:47;;;;;;;4.40;1.80;;;18.90;99.90;;;;;;7586022;19;20018;-82
2023/07/30 00:24:19;;;;;;;3.30;2.00;;;18.90;99.90;;;;;;7590527;19;20018;-84
2023/07/30 00:26:55;;;;;;;5.03;1.88;;;18.90;99.90;;;;;;7594603;19;20014;-83
2023/07/30 00:29:27;;;;;;;3.88;2.10;;;18.80;99.90;;;;;;7598259;19;20023;-83
2023/07/30 00:31:59;;;;;;;12.55;2.20;;;18.80;99.90;;;;;;7597265;19;20401;-82
2023/07/30 00:34:31;;;;;;;3.20;2.13;;;18.90;99.90;;;;;;7603175;19;20019;-84
2023/07/30 00:37:04;;;;;;;3.15;1.90;;;18.80;99.90;;;;;;7603290;19;20033;-83
2023/07/30 00:39:36;;;;;;;4.28;2.08;;;18.70;99.90;;;;;;7592815;19;20021;-83
2023/07/30 00:42:08;;;;;;;3.28;2.00;;;18.70;99.90;;;;;;7573960;19;20018;-81
2023/07/30 00:44:40;;;;;;;2.22;1.60;;;18.60;99.90;;;;;;7601246;19;20049;-84
2023/07/30 00:47:13;;;;;;;2.65;1.98;;;18.60;99.90;;;;;;7586575;19;20017;-83
2023/07/30 00:49:45;;;;;;;2.45;1.80;;;18.50;99.90;;;;;;7590522;19;20018;-82
2023/07/30 00:52:20;;;;;;;2.92;2.17;;;18.50;99.90;;;;;;7600919;19;20018;-83
2023/07/30 00:54:56;;;;;;;3.80;2.00;;;18.60;99.90;;;;;;7595001;19;20017;-84
2023/07/30 00:57:29;;;;;;;2.35;1.83;;;18.50;99.90;;;;;;7600811;19;20018;-83
2023/07/30 01:00:04;;;;;;;3.50;1.85;;;18.50;99.90;;;;;;7595565;19;20014;-84
2023/07/30 01:02:36;;;;;;;5.25;2.05;;;18.40;99.90;;;;;;7592975;19;20023;-84
2023/07/30 01:05:09;;;;;;;5.40;2.00;;;18.40;99.90;;;;;;7603584;19;20029;-83
2023/07/30 01:07:41;;;;;;;5.25;1.75;;;18.30;99.90;;;;;;7589395;19;20014;-84
2023/07/30 01:10:14;;;;;;;4.80;2.10;;;18.30;99.90;;;;;;7578922;19;20022;-83
2023/07/30 01:12:47;;;;;;;4.78;2.10;;;18.40;99.90;;;;;;7574089;19;20024;-84
2023/07/30 01:15:19;;;;;;;3.23;2.10;;;18.40;99.90;;;;;;7594816;19;20026;-84
2023/07/30 01:17:52;;;;;;;4.15;1.85;;;18.30;99.90;;;;;;7595828;19;20026;-84
2023/07/30 01:20:24;;;;;;;2.88;1.90;;;18.30;99.90;;;;;;7601211;19;20029;-83
2023/07/30 01:22:58;;;;;;;2.67;1.85;;;18.30;99.90;;;;;;7597649;19;20010;-85
2023/07/30 01:25:31;;;;;;;;;;;18.20;99.90;;;;;;7578601;19;20026;-84
2023/07/30 01:28:05;;;;;;;3.90;2.20;;;18.20;99.90;;;;;;7567280;19;19930;-83
2023/07/30 01:30:43;;;;;;;2.85;2.00;;;18.20;99.90;;;;;;7581514;19;20026;-83
2023/07/30 01:33:16;;;;;;;7.70;2.13;;;18.20;99.90;;;;;;7582240;19;20014;-81
2023/07/30 01:35:49;;;;;;;3.28;1.95;;;18.10;99.90;;;;;;7592049;19;20022;-84
2023/07/30 01:38:22;;;;;;;3.53;2.17;;;18.10;99.90;;;;;;7576563;19;20019;-83
2023/07/30 01:40:55;;;;;;;2.55;1.88;;;18.10;99.90;;;;;;7587995;19;20017;-83
2023/07/30 01:43:27;;;;;;;4.47;2.10;;;18.10;99.90;;;;;;7597871;19;20026;-84
2023/07/30 01:45:59;;;;;;;3.28;1.90;;;18.10;99.90;;;;;;7597772;19;20041;-83
2023/07/30 01:48:34;;;;;;;2.67;1.95;;;18.10;99.90;;;;;;7575217;19;20112;-84
2023/07/30 01:51:06;;;;;;;2.42;1.85;;;18.10;99.90;;;;;;7598398;19;20022;-84
2023/07/30 01:53:38;;;;;;;2.45;1.90;;;18.10;99.90;;;;;;7582681;19;20505;-84
2023/07/30 01:56:11;;;;;;;3.70;2.30;;;18.10;99.90;;;;;;7592624;19;20026;-84
2023/07/30 01:58:43;;;;;;;2.83;2.10;;;18.10;99.90;;;;;;7585199;19;20121;-83
2023/07/30 02:01:16;;;;;;;5.90;1.85;;;18.00;99.90;;;;;;7579888;19;20026;-84
2023/07/30 02:03:51;;;;;;;3.78;2.60;;;18.10;99.90;;;;;;7584835;19;20026;-85
2023/07/30 02:06:23;;;;;;;3.05;1.90;;;18.00;99.90;;;;;;7597130;19;20551;-84
2023/07/30 02:08:55;;;;;;;1.77;1.58;;;18.00;99.90;;;;;;7595222;19;20014;-86
2023/07/30 02:11:28;;;;;;;2.95;2.17;;;18.00;99.90;;;;;;7581039;19;20010;-83
2023/07/30 02:14:00;;;;;;;3.75;2.20;;;18.00;99.90;;;;;;7599363;19;20018;-84
2023/07/30 02:16:32;;;;;;;2.88;2.33;;;18.00;99.90;;;;;;7584092;19;20086;-85
2023/07/30 02:19:05;;;;;;;4.10;2.58;;;18.00;99.90;;;;;;7590170;19;20022;-85
2023/07/30 02:21:42;;;;;;;2.60;2.33;;;18.00;99.90;;;;;;7593273;19;20014;-83
2023/07/30 02:24:14;;;;;;;5.15;2.22;;;18.00;99.90;;;;;;7593383;19;20034;-83
2023/07/30 02:26:48;;;;;;;4.03;2.33;;;18.00;99.90;;;;;;7619138;19;20014;-84
2023/07/30 02:29:22;;;;;;;3.88;2.30;;;18.10;99.90;;;;;;7616276;19;20019;-83
2023/07/30 02:31:54;;;;;;;3.08;2.33;;;18.10;99.90;;;;;;7603600;19;20019;-84
2023/07/30 02:34:26;;;;;;;3.20;2.17;;;18.10;99.90;;;;;;7602935;19;20522;-84
2023/07/30 02:36:59;;;;;;;2.95;2.30;;;18.10;99.90;;;;;;7587334;19;20019;-83
2023/07/30 02:39:31;;;;;;;2.70;2.10;;;18.10;99.90;;;;;;7577350;19;20045;-83
2023/07/30 02:42:03;;;;;;;3.40;2.50;;;18.10;99.90;;;;;;7579236;19;20006;-85
2023/07/30 02:44:36;;;;;;;2.90;2.20;;;18.10;99.90;;;;;;7581628;19;21520;-83
2023/07/30 02:47:08;;;;;;;3.90;2.58;;;18.10;99.90;;;;;;7580524;19;20053;-83
2023/07/30 02:49:40;;;;;;;4.93;2.17;;;18.10;99.90;;;;;;7577269;19;20514;-83
2023/07/30 02:52:13;;;;;;;4.82;2.40;;;18.10;99.90;;;;;;7586932;19;20563;-82
2023/07/30 02:54:45;;;;;;;3.20;2.33;;;18.20;99.90;;;;;;7581264;19;20820;-83
2023/07/30 02:57:17;;;;;;;3.83;2.47;;;18.10;99.90;;;;;;7600037;19;20021;-83
2023/07/30 02:59:49;;;;;;;3.45;2.45;;;18.20;99.90;;;;;;7589645;19;20010;-84
2023/07/30 03:02:22;;;;;;;5.93;2.92;;;18.20;99.90;;;;;;7577769;19;20059;-83
2023/07/30 03:04:55;;;;;;;3.15;2.35;;;18.20;99.90;;;;;;7554783;19;20098;-83
2023/07/30 03:07:28;;;;;;;;;;;18.20;99.90;;;;;;7578435;19;20400;-83
2023/07/30 03:10:00;;;;;;;3.95;2.20;;;18.20;99.90;;;;;;7552458;19;19918;-82
2023/07/30 03:12:33;;;;;;;4.78;2.30;;;18.30;99.90;;;;;;7552855;19;20011;-84
2023/07/30 03:15:05;;;;;;;4.65;2.80;;;18.40;99.90;;;;;;7584283;19;20017;-84
2023/07/30 03:17:38;;;;;;;4.60;2.60;;;18.40;99.90;;;;;;7554627;19;20044;-83
2023/07/30 03:20:10;;;;;;;2.83;2.22;;;18.40;99.90;;;;;;7573509;19;20025;-83
2023/07/30 03:22:43;;;;;;;4.47;2.40;;;18.40;99.90;;;;;;7579967;19;20112;-83
2023/07/30 03:25:15;;;;;;;2.38;2.08;;;18.40;99.90;;;;;;7578111;19;20112;-83
2023/07/30 03:27:48;;;;;;;3.17;2.10;;;18.40;99.90;;;;;;7568073;19;20230;-84
2023/07/30 03:30:20;;;;;;;5.60;2.50;;;18.40;99.90;;;;;;7569859;19;20014;-82
2023/07/30 03:32:53;;;;;;;9.63;2.55;;;18.40;99.90;;;;;;7580233;19;20014;-82
2023/07/30 03:35:26;;;;;;;3.20;2.38;;;18.40;99.90;;;;;;7568485;19;22198;-82
2023/07/30 03:37:58;;;;;;;3.28;2.70;;;18.40;99.90;;;;;;7579397;19;21016;-84
2023/07/30 03:40:30;;;;;;;3.63;2.25;;;18.40;99.90;;;;;;7578241;19;20563;-83
2023/07/30 03:43:02;;;;;;;3.50;2.60;;;18.40;99.90;;;;;;7594124;19;20017;-83
2023/07/30 03:45:35;;;;;;;3.95;2.47;;;18.40;99.90;;;;;;7577740;19;20042;-84
2023/07/30 03:48:07;;;;;;;4.50;2.95;;;18.40;99.90;;;;;;7585154;19;20019;-84
2023/07/30 03:50:39;;;;;;;7.20;2.92;;;18.30;99.90;;;;;;7594441;19;20018;-84
2023/07/30 03:53:12;;;;;;;3.72;2.58;;;18.30;99.90;;;;;;7591979;19;20026;-83
2023/07/30 03:55:44;;;;;;;4.15;2.83;;;18.30;99.90;;;;;;7560675;19;20022;-83
2023/07/30 03:58:16;;;;;;;3.53;2.72;;;18.20;99.90;;;;;;7583372;19;20033;-83
2023/07/30 04:00:49;;;;;;;5.45;2.80;;;18.20;99.90;;;;;;7579138;19;20011;-83
2023/07/30 04:03:22;;;;;;;4.07;2.70;;;18.20;99.90;;;;;;7574183;19;20527;-84
2023/07/30 04:05:54;;;;;;;5.65;2.92;;;18.10;99.90;;;;;;7577334;19;20014;-84
2023/07/30 04:08:26;;;;;;;5.65;3.33;;;18.10;99.90;;;;;;7582565;19;20713;-86
2023/07/30 04:10:59;;;;;;;3.70;2.90;;;18.10;99.90;;;;;;7582261;19;20022;-84
2023/07/30 04:13:32;;;;;;;6.80;3.17;;;18.10;99.90;;;;;;7584193;19;20271;-82
2023/07/30 04:16:04;;;;;;;4.28;2.67;;;18.10;99.90;;;;;;7587085;19;20018;-83
2023/07/30 04:18:37;;;;;;;4.53;2.90;;;18.00;99.90;;;;;;7597173;19;20023;-83
2023/07/30 04:21:10;;;;;;;4.40;3.03;;;18.00;99.90;;;;;;7574821;19;20800;-83
2023/07/30 04:23:42;;;;;;;3.20;2.75;;;18.00;99.90;;;;;;7581013;19;20408;-83
2023/07/30 04:26:14;;;;;;;5.53;2.90;;;18.00;99.90;;;;;;7584142;19;20107;-83
2023/07/30 04:28:47;;;;;;;4.38;2.80;;;18.00;99.90;;;;;;7586329;19;20018;-83
2023/07/30 04:31:19;;;;;;;4.15;2.90;;;18.10;99.90;;;;;;7573649;19;20015;-83
2023/07/30 04:33:51;;;;;;;6.55;3.00;;;18.10;99.90;;;;;;7581854;19;20021;-82
2023/07/30 04:36:23;;;;;;;3.60;2.67;;;18.30;99.90;;;;;;7594561;19;20353;-82
2023/07/30 04:38:57;;;;;;;5.50;3.10;;;18.30;99.90;;;;;;7591085;19;20023;-82
2023/07/30 04:41:35;;;;;;;4.03;2.80;;;18.40;99.90;;;;;;7594940;19;20025;-82
2023/07/30 04:44:08;;;;;;;4.45;3.25;;;18.30;99.90;;;;;;7597439;19;20021;-83
2023/07/30 04:46:40;;;;;;;3.63;3.08;;;18.40;99.90;;;;;;7593853;19;20102;-82
2023/07/30 04:49:13;;;;;;;4.37;2.87;;;18.40;99.90;;;;;;7579401;19;20040;-84
2023/07/30 04:51:46;;;;;;;3.50;2.20;;;18.40;99.90;;;;;;7576696;19;20018;-84
2023/07/30 04:54:19;;;;;;;2.90;2.47;;;18.50;99.90;;;;;;7590817;19;20021;-84
2023/07/30 04:56:52;;;;;;;3.38;2.25;;;18.50;99.90;;;;;;7603742;19;20121;-82
2023/07/30 04:59:24;;;;;;;3.13;2.55;;;18.50;99.90;;;;;;7603922;19;20018;-83
2023/07/30 05:01:57;;;;;;;4.10;2.88;;;18.50;99.90;;;;;;7600477;19;20010;-83
2023/07/30 05:04:29;;;;;;;3.58;2.50;;;18.60;99.90;;;;;;7591465;19;20023;-81
2023/07/30 05:07:01;;;;;;;3.88;2.25;;;18.60;99.90;;;;;;7599354;19;20019;-82
2023/07/30 05:09:34;;;;;;;4.88;2.47;;;18.60;99.90;;;;;;7590844;19;20024;-83
2023/07/30 05:12:06;;;;;;;2.88;2.30;;;18.60;99.90;;;;;;7580028;19;20071;-83
2023/07/30 05:14:38;;;;;;;3.77;2.67;;;18.60;99.90;;;;;;7596480;19;20047;-83
2023/07/30 05:17:11;;;;;;;3.75;2.72;;;18.60;99.90;;;;;;7587278;19;20018;-83
2023/07/30 05:19:43;;;;;;;3.22;2.35;;;18.50;99.90;;;;;;7595017;19;20011;-82
2023/07/30 05:22:15;;;;;;;3.33;2.90;;;18.60;99.90;;;;;;7571246;19;20022;-85
2023/07/30 05:24:48;;;;;;;3.75;2.38;;;18.50;99.90;;;;;;7583366;19;20490;-81
2023/07/30 05:27:20;;;;;;;5.15;2.65;;;18.60;99.90;;;;;;7585675;19;20011;-82
2023/07/30 05:29:52;;;;;;;3.25;2.58;;;18.70;99.90;;;;;;7584076;19;20011;-82
2023/07/30 05:32:25;;;;;;;6.03;2.70;;;18.80;99.90;;;;;;7574774;19;20018;-84
2023/07/30 05:34:58;;;;;;;4.22;2.20;;;18.90;99.90;;;;;;7587654;19;20015;-82
2023/07/30 05:37:31;;;;;;;4.07;2.73;;;18.90;99.90;;;;;;7591251;19;20015;-84
2023/07/30 05:40:04;;;;;;;3.53;2.17;;;19.00;99.90;;;;;;7592303;19;20014;-83
2023/07/30 05:42:36;;;;;;;4.75;2.50;;;19.10;99.90;;;;;;7593955;19;20014;-85
2023/07/30 05:45:09;;;;;;;3.00;2.30;;;19.20;99.90;;;;;;7605469;19;20054;-85
2023/07/30 05:47:41;;;;;;;4.03;2.40;;;19.20;99.90;;;;;;7595000;19;20010;-84
2023/07/30 05:50:13;;;;;;;2.83;2.30;;;19.30;99.90;;;;;;7592779;19;20010;-82
2023/07/30 05:52:46;;;;;;;3.15;2.38;;;19.40;99.90;;;;;;7616166;19;20007;-84
2023/07/30 05:55:18;;;;;;;3.75;2.28;;;19.40;99.90;;;;;;7624153;19;20026;-84
2023/07/30 05:57:53;;;;;;;3.25;2.40;;;19.50;99.90;;;;;;7618934;19;20015;-83
2023/07/30 06:00:25;;;;;;;4.95;2.95;;;19.50;99.90;;;;;;7610693;19;20018;-84
2023/07/30 06:03:01;;;;;;;2.85;2.30;;;19.60;99.90;;;;;;7613018;19;20014;-84
2023/07/30 06:05:39;;;;;;;3.67;2.65;;;;;;;;;;7604134;19;20500;-84
2023/07/30 06:08:11;;;;;;;6.00;2.40;;;;;;;;;;7605090;19;20960;-84
2023/07/30 06:10:44;;;;;;;4.05;2.40;;;;;;;;;;7615774;19;20007;-84
2023/07/30 06:13:17;;;;;;;2.87;2.10;;;;;;;;;;7614497;19;20015;-84
2023/07/30 06:15:50;;;;;;;3.17;2.42;;;;;;;;;;7613164;19;21126;-84
2023/07/30 06:18:22;;;;;;;2.90;2.57;;;;;;;;;;7613520;19;20413;-84
2023/07/30 06:20:55;;;;;;;2.47;2.20;;;;;;;;;;7603205;19;20822;-84
2023/07/30 06:23:31;;;;;;;3.35;1.90;;;19.60;99.90;;;;;;7606174;19;20018;-84
2023/07/30 06:26:04;;;;;;;3.67;2.63;;;20.20;99.90;;;;;;7598175;19;20046;-83
2023/07/30 06:28:36;;;;;;;3.22;2.30;;;20.30;99.90;;;;;;7615441;19;20015;-84
2023/07/30 06:31:09;;;;;;;3.00;2.28;;;20.30;99.90;;;;;;7613591;19;20026;-84
2023/07/30 06:33:41;;;;;;;5.53;2.53;;;20.40;99.90;;;;;;7609453;19;20015;-84
2023/07/30 06:36:14;;;;;;;3.58;2.30;;;20.50;99.90;;;;;;7631786;19;20035;-85
2023/07/30 06:38:46;;;;;;;3.35;2.53;;;20.60;99.90;;;;;;7596821;19;20277;-82
2023/07/30 06:41:19;;;;;;;2.45;2.08;;;20.60;99.90;;;;;;7596885;19;20022;-82
2023/07/30 06:43:51;;;;;;;3.00;2.30;;;20.70;99.90;;;;;;7594099;19;20049;-82
2023/07/30 06:46:24;;;;;;;5.97;2.10;;;20.80;99.90;;;;;;7585775;19;20017;-85
2023/07/30 06:48:56;;;;;;;5.25;2.13;;;20.80;99.90;;;;;;7590707;19;20010;-82
2023/07/30 06:51:29;;;;;;;4.55;2.30;;;20.90;99.90;;;;;;7585896;19;20350;-84
2023/07/30 06:54:02;;;;;;;3.00;2.20;;;21.00;99.90;;;;;;7586363;19;20015;-84
2023/07/30 06:56:34;;;;;;;3.10;2.30;;;20.90;99.90;;;;;;7575627;19;20022;-82
2023/07/30 06:59:07;;;;;;;2.88;2.20;;;20.90;99.90;;;;;;7597905;19;20014;-83
2023/07/30 07:01:40;;;;;;;3.90;2.25;;;21.00;99.90;;;;;;7573898;19;20023;-83
2023/07/30 07:04:13;;;;;;;2.17;1.98;;;21.20;99.90;;;;;;7597071;19;20051;-86
2023/07/30 07:06:46;;;;;;;7.05;2.28;;;21.10;99.90;;;;;;7602484;19;21823;-85
2023/07/30 07:09:18;;;;;;;2.47;2.10;;;21.20;99.90;;;;;;7593206;19;20022;-84
2023/07/30 07:11:50;;;;;;;5.40;2.50;;;21.20;99.90;;;;;;7604549;19;20107;-83
2023/07/30 07:14:22;;;;;;;2.67;1.88;;;21.30;99.90;;;;;;7585763;19;21087;-83
2023/07/30 07:16:56;;;;;;;3.55;2.35;;;21.50;99.90;;;;;;7590935;19;20349;-83
2023/07/30 07:19:31;;;;;;;3.65;2.28;;;21.60;99.90;;;;;;7598746;19;20039;-84
2023/07/30 07:22:04;;;;;;;2.30;1.90;;;21.50;99.90;;;;;;7610313;19;20672;-84
2023/07/30 07:24:39;;;;;;;3.60;2.13;;;21.60;99.90;;;;;;7596316;19;20014;-83
2023/07/30 07:27:12;;;;;;;5.78;2.45;;;21.90;99.90;;;;;;7616927;19;20019;-83
2023/07/30 07:29:44;;;;;;;4.78;2.20;;;21.80;99.90;;;;;;7613771;19;20050;-83
2023/07/30 07:32:17;;;;;;;3.38;2.38;;;21.80;99.90;;;;;;7605239;19;20014;-83
2023/07/30 07:34:49;;;;;;;1.90;1.60;;;21.80;99.90;;;;;;7561649;19;20649;-83
2023/07/30 07:37:22;;;;;;;2.42;2.05;;;22.00;99.90;;;;;;7577149;19;20046;-83
2023/07/30 07:39:54;;;;;;;3.67;2.13;;;22.20;99.90;;;;;;7581046;19;20007;-84
2023/07/30 07:42:29;;;;;;;2.60;2.00;;;22.20;99.90;;;;;;7604725;19;20267;-82
2023/07/30 07:45:02;;;;;;;3.90;2.42;;;22.50;99.90;;;;;;7586022;19;20011;-84
2023/07/30 07:47:36;;;;;;;2.53;2.10;;;22.70;99.90;;;;;;7521938;19;20025;-82
2023/07/30 07:50:11;;;;;;;4.65;2.25;;;22.70;99.90;;;;;;7560782;19;20014;-82
2023/07/30 07:52:52;;;;;;;3.58;2.15;;;22.60;99.90;;;;;;7559569;19;20515;-82
2023/07/30 07:55:32;;;;;;;3.70;2.22;;;22.60;99.90;;;;;;7568369;19;20011;-82
2023/07/30 07:58:07;;;;;;;2.85;2.00;;;22.50;99.90;;;;;;7559896;19;20281;-84
2023/07/30 08:00:59;;;;;;;2.67;2.00;;;22.70;99.90;;;;;;7567032;19;20024;-85
2023/07/30 08:03:34;;;;;;;3.00;2.13;;;22.80;99.90;;;;;;7585584;19;20032;-83
2023/07/30 08:06:18;;;;;;;4.63;2.08;;;22.80;99.90;;;;;;7566919;19;20106;-84
2023/07/30 08:08:56;;;;;;;3.17;2.13;;;22.70;99.90;;;;;;7563732;19;20018;-84
2023/07/30 08:12:00;;;;;;;2.78;1.67;;;22.60;99.90;;;;;;7582540;19;20015;-84
2023/07/30 08:14:36;;;;;;;3.13;2.33;;;22.50;99.90;;;;;;7562756;19;20034;-83
2023/07/30 08:21:04;;;;;;;2.72;2.15;;;22.50;99.90;;;;;;7559986;19;20015;-84
2023/07/30 08:24:00;;;;;;;3.00;2.03;;;22.60;99.90;;;;;;7565022;19;20014;-81
2023/07/30 08:26:41;;;;;;;4.80;2.33;;;22.80;99.90;;;;;;7564922;19;20278;-82
2023/07/30 08:29:40;;;;;;;3.15;2.13;;;22.90;99.90;;;;;;7589970;19;20018;-81
2023/07/30 08:32:27;;;;;;;3.50;2.08;;;23.20;99.90;;;;;;7572960;19;20011;-82
2023/07/30 08:35:11;;;;;;;3.85;2.00;;;23.40;99.90;;;;;;7575877;19;20034;-82
2023/07/30 08:37:55;;;;;;;5.18;1.95;;;23.60;99.90;;;;;;7577206;19;21150;-83
2023/07/30 08:40:28;;;;;;;2.97;1.92;;;23.60;99.90;;;;;;7546206;19;20018;-83
2023/07/30 08:43:12;;;;;;;2.90;1.90;;;23.50;99.90;;;;;;7503757;19;20156;-83
2023/07/30 08:45:49;;;;;;;2.88;2.05;;;23.60;99.90;;;;;;7545604;19;20031;-83
2023/07/30 08:48:40;;;;;;;2.75;2.00;;;23.60;99.90;;;;;;7564292;19;20022;-85
2023/07/30 08:52:01;;;;;;;2.97;2.08;;;23.50;99.90;;;;;;7545749;19;20634;-82
2023/07/30 08:58:08;;;;;;;2.28;1.67;;;23.80;99.90;;;;;;7579775;19;20015;-82
2023/07/30 09:00:51;;;;;;;2.97;2.38;;;23.80;99.90;;;;;;7594559;19;20026;-84
2023/07/30 09:03:35;;;;;;;2.90;2.05;;;23.40;99.90;;;;;;7535744;19;20010;-83
2023/07/30 09:09:37;;;;;;;3.40;1.98;;;23.20;99.90;;;;;;7566340;19;20018;-84
2023/07/30 09:12:15;;;;;;;2.20;1.80;;;23.20;99.90;;;;;;7573553;19;20035;-84
2023/07/30 09:15:34;;;;;;;2.65;1.60;;;23.30;99.90;;;;;;7541506;19;20022;-85
2023/07/30 09:18:10;;;;;;;2.63;2.00;;;23.40;99.90;;;;;;7557348;19;20022;-84
2023/07/30 09:20:56;;;;;;;2.72;2.03;;;23.40;99.90;;;;;;7579777;19;20110;-84
2023/07/30 09:23:44;;;;;;;3.13;2.03;;;23.30;99.70;;;;;;7557607;19;20131;-84
2023/07/30 09:26:41;;;;;;;2.17;1.75;;;23.30;99.90;;;;;;7565321;19;20014;-83
2023/07/30 09:29:30;;;;;;;2.53;2.03;;;23.30;99.90;;;;;;7579615;19;20022;-84
2023/07/30 09:32:17;;;;;;;2.22;1.90;;;23.40;99.90;;;;;;7579443;19;20026;-83
2023/07/30 09:35:22;;;;;;;2.53;1.88;;;23.30;99.30;;;;;;7581078;19;20041;-83
2023/07/30 09:38:02;;;;;;;2.30;1.67;;;23.20;99.90;;;;;;7563057;19;20018;-81
2023/07/30 09:40:38;;;;;;;2.78;2.17;;;23.10;99.60;;;;;;7607866;19;20022;-80
2023/07/30 09:43:11;;;;;;;2.45;1.98;;;23.30;98.80;;;;;;7592395;19;20018;-83
2023/07/30 09:45:47;;;;;;;3.45;1.73;;;23.60;98.80;;;;;;7591367;19;20043;-82
2023/07/30 09:48:20;;;;;;;1.83;1.63;;;23.80;99.50;;;;;;7590140;19;20752;-80
2023/07/30 09:50:53;;;;;;;2.22;1.80;;;23.80;97.60;;;;;;7547958;19;20030;-80
2023/07/30 09:53:29;;;;;;;2.00;1.80;;;23.70;97.90;;;;;;7559907;19;20010;-79
2023/07/30 09:56:07;;;;;;;2.15;1.95;;;23.90;99.30;;;;;;7533030;19;20010;-80
2023/07/30 09:58:42;;;;;;;3.17;1.90;;;23.90;97.30;;;;;;7566898;19;20017;-80
2023/07/30 10:01:15;;;;;;;2.47;2.00;;;23.90;97.60;;;;;;7555787;19;20015;-80
2023/07/30 10:03:49;;;;;;;2.38;2.00;;;23.90;97.80;;;;;;7562793;19;22384;-79
2023/07/30 10:06:23;;;;;;;4.28;1.85;;;23.90;97.90;;;;;;7551443;19;20014;-79
2023/07/30 10:08:59;;;;;;;2.97;2.20;;;24.00;98.10;;;;;;7541689;19;21085;-78
2023/07/30 10:11:32;;;;;;;2.65;1.65;;;24.00;98.10;;;;;;7537731;19;20010;-80
2023/07/30 10:14:05;;;;;;;2.95;2.05;;;24.10;98.40;;;;;;7541133;19;20025;-80
2023/07/30 10:16:37;;;;;;;2.45;1.80;;;24.20;98.30;;;;;;7545865;19;20018;-80
2023/07/30 10:19:11;;;;;;;6.82;2.00;;;24.30;98.90;;;;;;7490685;19;20030;-81
2023/07/30 10:21:43;;;;;;;5.43;2.30;;;24.20;98.10;;;;;;7514024;19;20081;-80
2023/07/30 10:24:16;;;;;;;3.67;1.90;;;24.00;97.70;;;;;;7543085;19;20931;-81
2023/07/30 10:26:49;;;;;;;3.10;1.92;;;23.90;97.70;;;;;;7575704;19;20041;-81
2023/07/30 10:29:23;;;;;;;3.13;2.00;;;23.60;97.80;;;;;;7559336;19;20139;-79
2023/07/30 10:31:57;;;;;;;8.68;2.67;;;23.30;98.50;;;;;;7506100;19;20399;-81
2023/07/30 10:34:55;;;;;;;3.60;2.25;;;22.70;99.90;;;;;;7497028;19;20045;-80
2023/07/30 10:37:28;;;;;;;3.72;2.50;;;21.70;99.90;;;;;;7578412;19;20060;-80
2023/07/30 10:40:00;;;;;;;4.60;2.20;;;21.20;99.90;;;;;;7550241;19;21868;-80
2023/07/30 10:42:34;;;;;;;3.05;2.40;;;20.90;99.90;;;;;;7586826;19;20006;-80
2023/07/30 10:45:07;;;;;;;3.35;2.10;;;21.00;99.90;;;;;;7576191;19;20015;-82
2023/07/30 10:47:47;;;;;;;2.17;1.95;;;21.10;99.90;;;;;;7555266;19;20045;-81
2023/07/30 10:50:26;;;;;;;2.15;1.80;;;21.30;99.90;;;;;;7578210;19;20033;-81
2023/07/30 10:52:59;;;;;;;3.17;1.97;;;21.50;99.90;;;;;;7589299;19;20018;-82
2023/07/30 10:55:33;;;;;;;4.43;2.00;;;21.80;99.90;;;;;;7581164;19;20832;-82
2023/07/30 10:58:06;;;;;;;;;;;;;;;;;;7573186;19;21544;-81
2023/07/30 11:00:39;;;;;;;3.67;1.88;;;;;;;;;;7582617;19;20029;-81
2023/07/30 11:03:12;;;;;;;5.28;2.30;;;;;;;;;;7553849;19;20417;-81
2023/07/30 11:05:48;;;;;;;3.38;2.05;;;;;;;;;;7591063;19;20026;-81
2023/07/30 11:08:46;;;;;;;2.92;2.30;;;22.00;99.90;;;;;;7575381;19;20011;-83
2023/07/30 11:11:18;;;;;;;3.35;2.20;;;23.80;99.90;;;;;;7588971;19;20019;-83
2023/07/30 11:13:51;;;;;;;4.17;2.47;;;23.90;99.90;;;;;;7572000;19;21343;-82
2023/07/30 11:16:32;;;;;;;2.95;1.80;;;23.70;99.90;;;;;;7556291;19;20527;-83
2023/07/30 11:19:11;;;;;;;4.05;2.03;;;23.90;99.90;;;;;;7528147;19;20022;-83
2023/07/30 11:22:06;;;;;;;4.20;2.22;;;24.10;99.90;;;;;;7569442;19;20025;-84
2023/07/30 11:24:46;;;;;;;4.05;1.85;;;24.60;99.90;;;;;;7566097;19;20086;-84
2023/07/30 11:27:18;;;;;;;1.63;1.50;;;24.70;99.90;;;;;;7570938;19;20856;-86
2023/07/30 11:29:57;;;;;;;2.20;2.00;;;24.70;99.90;;;;;;7588782;19;20065;-85
2023/07/30 11:32:31;;;;;;;2.47;1.77;;;24.80;99.90;;;;;;7560167;19;20026;-85
2023/07/30 11:35:06;;;;;;;3.00;1.98;;;24.80;99.90;;;;;;7591013;19;20027;-84
2023/07/30 11:37:42;;;;;;;2.00;1.80;;;25.30;99.90;;;;;;7534939;19;20018;-88
2023/07/30 11:40:17;;;;;;;1.70;1.55;;;25.70;99.90;;;;;;7556196;19;21001;-86
2023/07/30 11:42:50;;;;;;;2.40;1.90;;;26.20;99.80;;;;;;7535929;19;20018;-84
2023/07/30 11:45:23;;;;;;;2.30;1.80;;;26.10;97.20;;;;;;7560737;19;20287;-85
2023/07/30 11:48:08;;;;;;;1.88;1.67;;;26.30;97.20;;;;;;7583496;19;20040;-84
2023/07/30 11:51:01;;;;;;;2.55;1.52;;;26.00;95.00;;;;;;7588396;19;20030;-85
2023/07/30 11:53:55;;;;;;;4.38;1.90;;;25.50;95.50;;;;;;7554193;19;20014;-82
2023/07/30 11:56:33;;;;;;;1.95;1.50;;;25.30;94.90;;;;;;7535645;19;24258;-82
2023/07/30 11:59:07;;;;;;;2.50;1.80;;;25.30;94.50;;;;;;7569420;19;20018;-83
2023/07/30 12:01:42;;;;;;;4.70;1.60;;;25.20;94.40;;;;;;7571250;19;20067;-82
2023/07/30 12:04:15;;;;;;;5.38;1.80;;;25.40;93.70;;;;;;7585968;19;20037;-80
2023/07/30 12:06:49;;;;;;;2.97;1.80;;;25.50;93.50;;;;;;7594073;19;20025;-83
2023/07/30 12:09:22;;;;;;;1.98;1.63;;;26.00;95.10;;;;;;7610298;19;20507;-80
2023/07/30 12:11:57;;;;;;;6.15;2.53;;;26.00;94.70;;;;;;7602684;19;20015;-81
2023/07/30 12:14:48;;;;;;;3.00;2.00;;;26.00;95.10;;;;;;7592624;19;20014;-81
2023/07/30 12:17:21;;;;;;;3.78;3.05;;;26.30;94.70;;;;;;7619827;19;20011;-83
2023/07/30 12:19:54;;;;;;;4.47;3.53;;;26.30;95.00;;;;;;7625580;19;20030;-83
2023/07/30 12:22:26;;;;;;;3.63;3.05;;;26.00;93.80;;;;;;7607382;19;20015;-82
2023/07/30 12:24:58;;;;;;;2.42;1.88;;;25.90;93.60;;;;;;7627939;19;20018;-80
2023/07/30 12:27:31;;;;;;;1.92;1.70;;;25.90;93.70;;;;;;7609723;19;20014;-80
2023/07/30 12:30:03;;;;;;;2.75;1.83;;;26.40;93.60;;;;;;7603582;19;20007;-80
2023/07/30 12:32:35;;;;;;;2.42;1.80;;;26.30;92.40;;;;;;7585489;19;20025;-80
2023/07/30 12:35:08;;;;;;;3.00;1.70;;;26.10;92.70;;;;;;7612676;19;20015;-80
2023/07/30 12:37:40;;;;;;;4.23;1.67;;;25.80;92.60;;;;;;7601564;19;20381;-82
2023/07/30 12:40:12;;;;;;;2.28;2.00;;;25.70;92.60;;;;;;7604146;19;20056;-81
2023/07/30 12:42:44;;;;;;;1.60;1.50;;;25.70;92.70;;;;;;7595865;19;20044;-80
2023/07/30 12:45:17;;;;;;;2.60;2.00;;;25.90;94.30;;;;;;7615372;19;22038;-81
2023/07/30 12:47:49;;;;;;;2.38;1.92;;;26.40;93.60;;;;;;7611462;19;20819;-82
2023/07/30 12:50:22;;;;;;;1.98;1.63;;;26.70;93.10;;;;;;7609487;19;20508;-82
2023/07/30 12:52:54;;;;;;;2.85;1.77;;;26.40;92.60;;;;;;7620899;19;20022;-80
2023/07/30 12:55:26;;;;;;;2.42;1.77;;;26.00;93.00;;;;;;7600428;19;20649;-80
2023/07/30 12:57:59;;;;;;;2.97;2.25;;;25.50;93.30;;;;;;7603220;19;20025;-81
2023/07/30 13:00:32;;;;;;;2.50;1.80;;;25.70;94.00;;;;;;7604601;19;20026;-81
2023/07/30 13:03:05;;;;;;;2.53;1.80;;;25.60;94.00;;;;;;7590592;19;20014;-80
2023/07/30 13:05:37;;;;;;;3.22;2.00;;;25.60;94.30;;;;;;7613309;19;20011;-82
2023/07/30 13:08:09;;;;;;;2.92;1.92;;;25.00;95.50;;;;;;7640136;19;20022;-82
2023/07/30 13:10:41;;;;;;;3.90;2.03;;;24.90;95.50;;;;;;7620709;19;20024;-81
2023/07/30 13:13:13;;;;;;;2.42;1.88;;;24.70;95.70;;;;;;7580838;19;20026;-81
2023/07/30 13:15:46;;;;;;;2.38;1.95;;;24.80;96.90;;;;;;7590324;19;20018;-81
2023/07/30 13:18:18;;;;;;;2.50;2.22;;;25.20;97.20;;;;;;7592767;19;20014;-80
2023/07/30 13:20:50;;;;;;;2.22;2.00;;;25.50;96.20;;;;;;7606063;19;20051;-80
2023/07/30 13:23:25;;;;;;;4.22;2.25;;;25.50;95.60;;;;;;7584214;19;20085;-80
2023/07/30 13:25:57;;;;;;;3.03;1.92;;;25.70;96.10;;;;;;7596052;19;20661;-80
2023/07/30 13:28:29;;;;;;;3.25;2.20;;;25.70;96.70;;;;;;7576240;19;20015;-81
2023/07/30 13:31:02;;;;;;;3.15;2.63;;;26.30;95.50;;;;;;7593338;19;20019;-80
2023/07/30 13:33:34;;;;;;;2.70;2.00;;;26.50;95.20;;;;;;7599234;19;20021;-81
2023/07/30 13:36:06;;;;;;;3.05;2.20;;;26.60;94.60;;;;;;7614193;19;20026;-81
2023/07/30 13:38:39;;;;;;;3.25;2.17;;;26.30;93.50;;;;;;7608650;19;20010;-81
2023/07/30 13:41:11;;;;;;;4.32;2.30;;;26.10;94.60;;;;;;7597057;19;20022;-81